Time;durP1;ratioP1;P1;durP2;ratioP2;P2;SDS_P1;SDS_P2;PMS_P1;PMS_P2;Temp;Humidity;BMP_temperature;BMP_pressure;BME280_temperature;BME280_humidity;BME280_pressure;Samples;Min_cycle;Max_cycle;Signal;HPM_P1;HPM_P2
2021/10/22 00:00:16;;;;;;;2.37;1.00;;;9.20;99.90;;;;;;5143841;27;20261;-82
2021/10/22 00:02:42;;;;;;;2.33;0.90;;;9.10;99.90;;;;;;5143572;27;20199;-82
2021/10/22 00:05:08;;;;;;;4.20;1.10;;;9.10;99.90;;;;;;5142440;27;20198;-83
2021/10/22 00:07:35;;;;;;;2.90;1.10;;;;;;;;;;5143703;27;20530;-82
2021/10/22 00:10:01;;;;;;;2.87;1.03;;;8.90;99.90;;;;;;5143924;27;20219;-82
2021/10/22 00:12:26;;;;;;;2.67;1.10;;;8.90;99.90;;;;;;5146010;27;20177;-82
2021/10/22 00:14:52;;;;;;;3.10;1.07;;;8.80;99.90;;;;;;5145129;27;20180;-82
2021/10/22 00:17:18;;;;;;;3.57;1.20;;;8.70;99.90;;;;;;5144422;27;20259;-82
2021/10/22 00:19:44;;;;;;;7.60;1.30;;;8.60;99.90;;;;;;5144127;27;20250;-82
2021/10/22 00:22:09;;;;;;;4.40;1.20;;;8.60;99.90;;;;;;5143307;27;20176;-83
2021/10/22 00:24:35;;;;;;;1.63;1.40;;;8.50;99.90;;;;;;5143885;27;20241;-84
2021/10/22 00:27:01;;;;;;;3.43;1.27;;;8.40;99.90;;;;;;5143443;27;20172;-82
2021/10/22 00:29:26;;;;;;;2.03;0.90;;;8.40;99.90;;;;;;5143081;27;20176;-83
2021/10/22 00:31:52;;;;;;;1.77;0.97;;;8.40;99.90;;;;;;5144625;27;20172;-83
2021/10/22 00:34:18;;;;;;;2.33;1.30;;;8.30;99.90;;;;;;5145016;27;20176;-83
2021/10/22 00:36:43;;;;;;;3.73;1.53;;;8.30;99.90;;;;;;5143024;27;20232;-83
2021/10/22 00:39:10;;;;;;;3.70;1.47;;;;;;;;;;5144781;27;20270;-82
2021/10/22 00:41:38;;;;;;;4.13;1.20;;;8.30;99.90;;;;;;5143161;27;20200;-82
2021/10/22 00:44:04;;;;;;;6.13;0.93;;;8.30;99.90;;;;;;5142457;27;20213;-83
2021/10/22 00:46:31;;;;;;;1.50;0.93;;;8.40;99.90;;;;;;5144053;27;20522;-83
2021/10/22 00:48:58;;;;;;;3.97;0.87;;;8.40;99.90;;;;;;5144148;27;20187;-82
2021/10/22 00:51:24;;;;;;;1.77;1.10;;;8.30;99.90;;;;;;5142716;27;20264;-82
2021/10/22 00:53:50;;;;;;;2.13;1.10;;;8.30;99.90;;;;;;5144425;27;20183;-83
2021/10/22 00:56:16;;;;;;;2.00;0.90;;;8.30;99.90;;;;;;5143273;28;20188;-82
2021/10/22 00:58:42;;;;;;;3.33;0.90;;;8.30;99.90;;;;;;5143889;28;20651;-82
2021/10/22 01:01:09;;;;;;;1.60;1.30;;;8.30;99.90;;;;;;5142360;28;20200;-82
2021/10/22 01:03:36;;;;;;;3.47;1.00;;;8.30;99.90;;;;;;5137851;28;20196;-82
2021/10/22 01:06:04;;;;;;;1.30;1.20;;;8.30;99.90;;;;;;5135581;28;20206;-82
2021/10/22 01:08:31;;;;;;;3.63;1.10;;;8.30;99.90;;;;;;5142468;28;20177;-82
2021/10/22 01:10:58;;;;;;;5.67;1.23;;;8.30;99.90;;;;;;5149989;28;20192;-82
2021/10/22 01:13:24;;;;;;;1.77;1.00;;;8.20;99.90;;;;;;5138841;27;20267;-82
2021/10/22 01:15:50;;;;;;;2.77;1.80;;;8.20;99.90;;;;;;5143185;27;20176;-82
2021/10/22 01:18:16;;;;;;;3.00;1.50;;;8.20;99.90;;;;;;5142679;28;20187;-82
2021/10/22 01:20:42;;;;;;;2.90;1.30;;;8.20;99.90;;;;;;5142526;28;20200;-82
2021/10/22 01:23:08;;;;;;;2.40;1.20;;;8.30;99.90;;;;;;5143260;28;20172;-82
2021/10/22 01:25:34;;;;;;;1.20;1.07;;;8.30;99.90;;;;;;5142855;27;20189;-82
2021/10/22 01:28:00;;;;;;;3.00;1.20;;;;;;;;;;5148346;27;20621;-82
2021/10/22 01:30:27;;;;;;;5.20;1.10;;;8.20;99.90;;;;;;5147895;27;20637;-83
2021/10/22 01:33:01;;;;;;;3.00;1.03;;;8.20;99.90;;;;;;5146324;27;20194;-82
2021/10/22 01:35:27;;;;;;;4.60;1.30;;;8.20;99.90;;;;;;5148743;27;20181;-82
2021/10/22 01:37:53;;;;;;;4.57;1.10;;;8.20;99.90;;;;;;5146964;27;20175;-82
2021/10/22 01:40:19;;;;;;;1.73;1.50;;;8.20;99.90;;;;;;5147383;27;20286;-83
2021/10/22 01:42:45;;;;;;;2.50;1.10;;;8.20;99.90;;;;;;5148093;27;20173;-82
2021/10/22 01:45:11;;;;;;;2.53;1.40;;;8.20;99.90;;;;;;5147061;27;20207;-83
2021/10/22 01:47:37;;;;;;;2.60;1.00;;;8.20;99.90;;;;;;5146859;27;20354;-82
2021/10/22 01:50:04;;;;;;;3.00;1.30;;;8.20;99.90;;;;;;5148524;27;20189;-83
2021/10/22 01:52:29;;;;;;;2.10;1.10;;;8.30;99.90;;;;;;5148197;27;20614;-82
2021/10/22 01:54:56;;;;;;;5.83;1.27;;;;;;;;;;5148161;27;20341;-82
2021/10/22 01:57:21;;;;;;;2.73;1.30;;;8.30;99.90;;;;;;5146999;27;20179;-82
2021/10/22 01:59:49;;;;;;;3.03;1.17;;;;;;;;;;5147479;27;20207;-82
2021/10/22 02:02:15;;;;;;;3.80;1.63;;;8.20;99.90;;;;;;5148802;27;20185;-82
2021/10/22 02:04:41;;;;;;;4.03;1.10;;;;;;;;;;5148529;27;20200;-82
2021/10/22 02:07:07;;;;;;;2.87;1.20;;;8.20;99.90;;;;;;5146911;27;20652;-82
2021/10/22 02:09:33;;;;;;;4.47;1.60;;;8.30;99.90;;;;;;5147131;27;20173;-84
2021/10/22 02:11:59;;;;;;;2.63;1.40;;;8.30;99.90;;;;;;5146036;27;20177;-82
2021/10/22 02:14:24;;;;;;;1.73;1.07;;;8.30;99.90;;;;;;5145945;27;20183;-82
2021/10/22 02:16:50;;;;;;;2.43;1.07;;;8.30;99.90;;;;;;5146144;27;20638;-82
2021/10/22 02:19:16;;;;;;;2.17;1.30;;;;;;;;;;5145738;27;20188;-84
2021/10/22 02:21:42;;;;;;;4.00;0.93;;;8.20;99.90;;;;;;5146253;27;20252;-83
2021/10/22 02:24:07;;;;;;;3.17;1.10;;;8.20;99.90;;;;;;5144951;27;20205;-82
2021/10/22 02:26:34;;;;;;;1.23;1.00;;;8.20;99.90;;;;;;5146264;27;20329;-82
2021/10/22 02:29:00;;;;;;;3.57;1.50;;;8.10;99.90;;;;;;5147850;27;20173;-82
2021/10/22 02:31:26;;;;;;;3.70;1.43;;;8.20;99.90;;;;;;5146349;27;20200;-82
2021/10/22 02:33:52;;;;;;;4.07;1.50;;;8.20;99.90;;;;;;5147619;27;20722;-83
2021/10/22 02:36:19;;;;;;;3.67;1.10;;;8.10;99.90;;;;;;5149904;27;20234;-82
2021/10/22 02:38:45;;;;;;;4.23;1.50;;;8.10;99.90;;;;;;5150057;27;20191;-82
2021/10/22 02:41:11;;;;;;;3.07;1.07;;;8.10;99.90;;;;;;5147670;27;20224;-82
2021/10/22 02:43:37;;;;;;;3.37;1.60;;;8.10;99.90;;;;;;5152162;27;20205;-83
2021/10/22 02:46:03;;;;;;;3.43;1.57;;;8.10;99.90;;;;;;5150853;27;20201;-83
2021/10/22 02:48:29;;;;;;;3.87;1.30;;;8.10;99.90;;;;;;5150278;27;20161;-83
2021/10/22 02:50:55;;;;;;;3.13;1.20;;;;;;;;;;5145903;27;20189;-83
2021/10/22 02:53:21;;;;;;;3.23;2.13;;;8.10;99.90;;;;;;5144925;27;20220;-83
2021/10/22 02:55:47;;;;;;;3.73;1.30;;;;;;;;;;5146068;27;20181;-83
2021/10/22 02:58:13;;;;;;;3.07;1.30;;;8.00;99.90;;;;;;5145207;27;20179;-83
2021/10/22 03:00:38;;;;;;;4.70;1.50;;;8.00;99.90;;;;;;5145873;27;20203;-83
2021/10/22 03:03:04;;;;;;;4.40;1.57;;;8.00;99.90;;;;;;5145010;27;20197;-82
2021/10/22 03:05:31;;;;;;;2.70;1.27;;;8.10;99.90;;;;;;5144361;27;20267;-82
2021/10/22 03:07:58;;;;;;;3.40;1.50;;;8.00;99.90;;;;;;5145150;27;20229;-83
2021/10/22 03:10:23;;;;;;;3.80;1.30;;;8.00;99.90;;;;;;5144399;27;20197;-84
2021/10/22 03:12:49;;;;;;;5.87;1.53;;;8.00;99.90;;;;;;5145973;27;20175;-83
2021/10/22 03:15:16;;;;;;;4.57;1.40;;;8.00;99.90;;;;;;5144986;27;20187;-82
2021/10/22 03:17:42;;;;;;;5.43;1.73;;;8.00;99.90;;;;;;5146492;27;20233;-83
2021/10/22 03:20:09;;;;;;;5.77;1.77;;;8.00;99.90;;;;;;5147448;27;20203;-82
2021/10/22 03:22:35;;;;;;;2.63;1.50;;;8.00;99.90;;;;;;5145575;27;20235;-82
2021/10/22 03:25:02;;;;;;;3.63;1.40;;;8.10;99.90;;;;;;5143562;27;20204;-83
2021/10/22 03:27:27;;;;;;;3.00;1.20;;;8.10;99.90;;;;;;5145054;27;20184;-83
2021/10/22 03:29:54;;;;;;;4.00;1.20;;;8.10;99.90;;;;;;5145922;27;20197;-83
2021/10/22 03:32:20;;;;;;;3.17;1.30;;;8.10;99.90;;;;;;5143865;27;20211;-83
2021/10/22 03:34:46;;;;;;;4.27;1.60;;;8.10;99.90;;;;;;5145164;27;20189;-82
2021/10/22 03:37:12;;;;;;;4.03;1.20;;;8.10;99.90;;;;;;5143810;27;20187;-83
2021/10/22 03:39:38;;;;;;;3.27;1.30;;;8.10;99.90;;;;;;5143457;27;20569;-82
2021/10/22 03:42:04;;;;;;;3.23;1.27;;;;;;;;;;5144916;27;20177;-82
2021/10/22 03:44:30;;;;;;;3.83;1.50;;;8.10;99.90;;;;;;5143043;27;20203;-82
2021/10/22 03:46:56;;;;;;;2.03;1.70;;;;;;;;;;5144721;27;20180;-83
2021/10/22 03:49:23;;;;;;;4.27;1.40;;;8.00;99.90;;;;;;5144625;27;20225;-83
2021/10/22 03:51:48;;;;;;;4.00;1.30;;;8.00;99.90;;;;;;5142249;27;20179;-83
2021/10/22 03:54:14;;;;;;;3.23;1.27;;;8.00;99.90;;;;;;5143745;27;20179;-83
2021/10/22 03:56:40;;;;;;;3.90;1.40;;;;;;;;;;5143588;27;20188;-82
2021/10/22 03:59:06;;;;;;;2.30;1.20;;;8.00;99.90;;;;;;5141831;27;20216;-82
2021/10/22 04:01:32;;;;;;;3.43;1.60;;;;;;;;;;5143076;27;20227;-82
2021/10/22 04:03:58;;;;;;;3.13;1.33;;;8.00;99.90;;;;;;5142072;27;20203;-82
2021/10/22 04:06:24;;;;;;;3.77;1.70;;;;;;;;;;5140369;27;20179;-82
2021/10/22 04:08:49;;;;;;;3.23;1.50;;;8.10;99.90;;;;;;5140427;27;20214;-82
2021/10/22 04:11:15;;;;;;;4.20;1.00;;;8.10;99.90;;;;;;5141556;27;20271;-83
2021/10/22 04:13:41;;;;;;;3.27;1.57;;;8.00;99.90;;;;;;5141718;27;20185;-82
2021/10/22 04:16:07;;;;;;;1.60;1.13;;;;;;;;;;5143296;27;20565;-83
2021/10/22 04:18:33;;;;;;;4.63;1.53;;;8.00;99.90;;;;;;5143549;27;20185;-83
2021/10/22 04:20:59;;;;;;;1.87;1.17;;;;;;;;;;5144474;27;20308;-83
2021/10/22 04:23:24;;;;;;;3.40;1.60;;;8.00;99.90;;;;;;5143381;27;20200;-82
2021/10/22 04:25:52;;;;;;;4.47;1.43;;;8.00;99.90;;;;;;5143691;27;20182;-83
2021/10/22 04:28:18;;;;;;;4.50;1.70;;;8.00;99.90;;;;;;5145047;27;20518;-83
2021/10/22 04:30:44;;;;;;;5.40;1.50;;;8.00;99.90;;;;;;5145127;27;20199;-83
2021/10/22 04:33:10;;;;;;;3.23;1.37;;;;;;;;;;5144452;27;20188;-83
2021/10/22 04:35:35;;;;;;;5.17;1.77;;;8.00;99.90;;;;;;5144448;27;20172;-82
2021/10/22 04:40:30;;;;;;;2.90;1.47;;;;;;;;;;5144274;27;20191;-83
2021/10/22 04:40:52;;;;;;;1.70;1.20;;;7.90;99.90;;;;;;5143742;27;20211;-83
2021/10/22 04:43:18;;;;;;;1.50;1.40;;;7.70;99.90;;;;;;5145188;27;20622;-83
2021/10/22 04:45:48;;;;;;;1.40;1.30;;;7.50;99.90;;;;;;5145011;27;20171;-83
2021/10/22 04:48:14;;;;;;;1.33;1.23;;;7.30;99.90;;;;;;5145672;27;20172;-83
2021/10/22 04:50:46;;;;;;;1.80;1.30;;;6.90;99.90;;;;;;5143560;27;20196;-83
2021/10/22 04:53:12;;;;;;;1.30;1.20;;;6.90;99.90;;;;;;5144578;27;20212;-84
2021/10/22 04:55:38;;;;;;;1.30;1.17;;;;;;;;;;5143734;27;20173;-83
2021/10/22 04:58:05;;;;;;;1.53;1.43;;;6.60;99.90;;;;;;5144756;28;20171;-83
2021/10/22 05:00:31;;;;;;;1.60;1.50;;;6.50;99.90;;;;;;5144661;27;20193;-84
2021/10/22 05:02:57;;;;;;;3.30;2.50;;;;;;;;;;5146901;28;20255;-84
2021/10/22 05:05:23;;;;;;;2.13;1.90;;;6.40;99.90;;;;;;5147499;27;20724;-84
2021/10/22 05:07:49;;;;;;;1.57;1.47;;;;;;;;;;5144082;28;20202;-83
2021/10/22 05:10:14;;;;;;;3.43;2.73;;;6.40;99.90;;;;;;5133001;28;20218;-83
2021/10/22 05:12:40;;;;;;;2.63;2.10;;;;;;;;;;5140682;28;20241;-83
2021/10/22 05:15:08;;;;;;;35.80;26.17;;;6.40;99.90;;;;;;5142439;28;20249;-82
2021/10/22 05:17:34;;;;;;;13.13;10.70;;;6.30;99.90;;;;;;5141778;28;20180;-83
2021/10/22 05:20:00;;;;;;;9.37;7.43;;;6.20;99.90;;;;;;5142948;28;20206;-83
2021/10/22 05:22:26;;;;;;;52.60;40.87;;;6.20;99.90;;;;;;5143955;28;20183;-83
2021/10/22 05:24:51;;;;;;;3.50;3.20;;;6.20;99.90;;;;;;5143298;28;20203;-83
2021/10/22 05:27:17;;;;;;;4.70;4.27;;;6.10;99.90;;;;;;5142422;28;20221;-83
2021/10/22 05:29:44;;;;;;;3.23;2.93;;;6.00;99.90;;;;;;5141985;28;20666;-83
2021/10/22 05:32:10;;;;;;;4.40;4.00;;;6.00;99.90;;;;;;5142775;28;20186;-83
2021/10/22 05:34:35;;;;;;;3.80;2.80;;;5.90;99.90;;;;;;5142214;28;20278;-83
2021/10/22 05:37:02;;;;;;;3.73;3.43;;;5.90;99.90;;;;;;5142891;27;20180;-82
2021/10/22 05:39:28;;;;;;;4.40;3.40;;;5.80;99.90;;;;;;5142957;28;20255;-83
2021/10/22 05:41:54;;;;;;;7.90;7.20;;;5.80;99.90;;;;;;5143827;28;20190;-82
2021/10/22 05:44:20;;;;;;;18.20;16.20;;;5.70;99.90;;;;;;5144387;27;20194;-83
2021/10/22 05:46:47;;;;;;;40.60;36.43;;;5.70;99.90;;;;;;5143579;28;20224;-82
2021/10/22 05:49:13;;;;;;;4.97;4.43;;;5.70;99.90;;;;;;5142614;27;20202;-82
2021/10/22 05:51:39;;;;;;;22.13;19.97;;;5.70;99.90;;;;;;5142519;28;20652;-82
2021/10/22 05:54:05;;;;;;;17.93;16.23;;;5.70;99.90;;;;;;5142503;28;20175;-82
2021/10/22 05:56:30;;;;;;;7.37;6.67;;;5.70;99.90;;;;;;5143844;28;20266;-82
2021/10/22 05:58:56;;;;;;;14.93;11.17;;;5.70;99.90;;;;;;5142713;27;20208;-83
2021/10/22 06:01:22;;;;;;;10.00;9.00;;;5.70;99.90;;;;;;5142874;28;20668;-83
2021/10/22 06:03:48;;;;;;;26.60;24.00;;;5.70;99.90;;;;;;5142279;28;20202;-83
2021/10/22 06:06:14;;;;;;;13.90;12.70;;;5.70;99.90;;;;;;5141908;28;20176;-83
2021/10/22 06:08:41;;;;;;;23.43;20.13;;;5.70;99.90;;;;;;5141683;28;20235;-82
2021/10/22 06:11:11;;;;;;;14.93;11.63;;;5.70;99.90;;;;;;5143082;27;20212;-83
2021/10/22 06:13:38;;;;;;;21.17;18.93;;;5.80;99.90;;;;;;5143948;27;20171;-83
2021/10/22 06:16:04;;;;;;;14.87;13.37;;;5.70;99.90;;;;;;5144271;27;20255;-83
2021/10/22 06:18:30;;;;;;;11.27;9.80;;;5.70;99.90;;;;;;5146239;27;20175;-83
2021/10/22 06:21:03;;;;;;;6.27;5.70;;;5.80;99.90;;;;;;5145483;27;20494;-82
2021/10/22 06:26:13;;;;;;;3.90;3.37;;;5.80;99.90;;;;;;5148023;27;20247;-82
2021/10/22 06:28:39;;;;;;;5.40;3.50;;;5.90;99.90;;;;;;5145223;27;20633;-82
2021/10/22 06:31:05;;;;;;;5.20;4.03;;;5.90;99.90;;;;;;5145988;27;20218;-82
2021/10/22 06:33:31;;;;;;;3.80;3.50;;;6.00;99.90;;;;;;5147437;27;20197;-82
2021/10/22 06:35:57;;;;;;;4.73;3.37;;;6.00;99.90;;;;;;5146187;27;20175;-82
2021/10/22 06:38:24;;;;;;;39.67;32.43;;;6.00;99.90;;;;;;5145356;27;20202;-82
2021/10/22 06:40:53;;;;;;;129.57;84.57;;;6.00;99.90;;;;;;5145690;27;20199;-83
2021/10/22 06:43:22;;;;;;;27.87;20.30;;;6.00;99.90;;;;;;5146666;27;20249;-82
2021/10/22 06:45:49;;;;;;;8.20;6.53;;;6.00;99.90;;;;;;5145890;27;20199;-82
2021/10/22 06:48:15;;;;;;;6.27;5.63;;;5.90;99.90;;;;;;5146825;27;20167;-82
2021/10/22 06:50:40;;;;;;;8.10;7.30;;;5.90;99.90;;;;;;5145022;27;20281;-82
2021/10/22 06:53:07;;;;;;;11.97;9.90;;;6.00;99.90;;;;;;5145021;27;20207;-82
2021/10/22 06:55:33;;;;;;;5.33;4.83;;;6.00;99.90;;;;;;5145110;27;20169;-82
2021/10/22 06:57:59;;;;;;;5.27;4.77;;;6.10;99.90;;;;;;5145906;27;20201;-82
2021/10/22 07:00:26;;;;;;;4.10;3.70;;;6.20;99.90;;;;;;5146652;27;20197;-82
2021/10/22 07:02:55;;;;;;;6.50;5.90;;;6.10;99.90;;;;;;5145666;27;20172;-83
2021/10/22 07:07:58;;;;;;;11.30;10.10;;;6.30;99.90;;;;;;5144805;27;20158;-82
2021/10/22 07:10:23;;;;;;;6.13;5.47;;;6.20;99.90;;;;;;5141511;27;20195;-82
2021/10/22 07:12:49;;;;;;;10.67;8.33;;;6.20;99.90;;;;;;5140874;27;20177;-82
2021/10/22 07:15:16;;;;;;;8.77;6.50;;;6.20;99.90;;;;;;5141566;27;20238;-82
2021/10/22 07:17:42;;;;;;;5.67;4.30;;;6.20;99.90;;;;;;5139501;27;20218;-82
2021/10/22 07:20:11;;;;;;;4.30;3.90;;;6.20;99.90;;;;;;5137555;27;20293;-82
2021/10/22 07:22:47;;;;;;;3.30;2.83;;;6.30;99.90;;;;;;5139212;27;20178;-82
2021/10/22 07:25:12;;;;;;;3.40;2.73;;;6.30;99.90;;;;;;5146958;27;20196;-82
2021/10/22 07:27:38;;;;;;;3.67;3.30;;;6.20;99.90;;;;;;5150283;27;20177;-81
2021/10/22 07:30:04;;;;;;;2.90;2.60;;;6.30;99.90;;;;;;5150164;27;20712;-82
2021/10/22 07:32:30;;;;;;;2.73;2.47;;;6.40;99.90;;;;;;5144564;27;20238;-82
2021/10/22 07:34:56;;;;;;;5.23;2.30;;;6.40;99.90;;;;;;5145917;27;20789;-82
2021/10/22 07:37:21;;;;;;;5.53;2.40;;;6.30;99.90;;;;;;5145166;27;20167;-82
2021/10/22 07:39:47;;;;;;;4.63;2.33;;;6.30;99.90;;;;;;5143965;27;20266;-83
2021/10/22 07:42:12;;;;;;;5.63;2.27;;;6.30;99.90;;;;;;5144372;27;20182;-82
2021/10/22 07:44:39;;;;;;;4.10;1.77;;;6.40;99.90;;;;;;5145220;27;20199;-82
2021/10/22 07:47:05;;;;;;;3.40;1.77;;;6.40;99.90;;;;;;5143876;27;20546;-83
2021/10/22 07:49:31;;;;;;;6.77;2.80;;;6.40;99.90;;;;;;5145417;27;20175;-83
2021/10/22 07:51:57;;;;;;;3.77;2.43;;;6.40;99.90;;;;;;5145268;27;20169;-82
2021/10/22 07:54:22;;;;;;;5.77;2.97;;;6.40;99.90;;;;;;5144911;27;20175;-82
2021/10/22 07:56:48;;;;;;;5.23;2.17;;;6.40;99.90;;;;;;5145851;27;20177;-82
2021/10/22 07:59:14;;;;;;;5.33;1.83;;;6.50;99.90;;;;;;5145546;27;20177;-82
2021/10/22 08:01:39;;;;;;;3.00;2.00;;;6.50;99.90;;;;;;5143775;27;20204;-82
2021/10/22 08:04:06;;;;;;;6.60;1.87;;;6.50;99.90;;;;;;5144405;27;20211;-83
2021/10/22 08:06:32;;;;;;;3.90;2.80;;;6.50;99.90;;;;;;5144187;27;20183;-82
2021/10/22 08:08:57;;;;;;;5.93;3.20;;;6.40;99.90;;;;;;5143676;27;20180;-81
2021/10/22 08:11:23;;;;;;;3.10;2.10;;;6.50;99.90;;;;;;5123538;27;20202;-82
2021/10/22 08:13:50;;;;;;;3.77;2.20;;;6.40;99.90;;;;;;5143734;27;20202;-82
2021/10/22 08:16:16;;;;;;;25.50;18.67;;;6.40;99.90;;;;;;5144386;27;20262;-84
2021/10/22 08:18:42;;;;;;;22.10;16.60;;;6.40;99.90;;;;;;5144119;27;20193;-83
2021/10/22 08:21:19;;;;;;;5.27;4.60;;;6.40;99.90;;;;;;5143393;27;20211;-83
2021/10/22 08:23:46;;;;;;;4.20;3.53;;;6.50;99.90;;;;;;5145155;27;20233;-82
2021/10/22 08:26:12;;;;;;;3.57;2.20;;;6.50;99.90;;;;;;5143768;27;20185;-82
2021/10/22 08:28:38;;;;;;;4.37;2.10;;;6.50;99.90;;;;;;5139899;27;20185;-82
2021/10/22 08:31:06;;;;;;;5.23;2.53;;;6.40;99.90;;;;;;5141363;27;20238;-82
2021/10/22 08:33:31;;;;;;;5.30;4.80;;;6.40;99.90;;;;;;5143470;27;20284;-82
2021/10/22 08:35:58;;;;;;;4.80;2.67;;;6.30;99.90;;;;;;5143538;27;20263;-83
2021/10/22 08:38:25;;;;;;;6.77;2.83;;;6.40;99.90;;;;;;5143474;27;20178;-83
2021/10/22 08:40:54;;;;;;;12.43;10.87;;;6.40;99.90;;;;;;5143241;27;20201;-83
2021/10/22 08:43:20;;;;;;;15.97;10.23;;;6.50;99.90;;;;;;5143824;27;20550;-83
2021/10/22 08:45:48;;;;;;;15.27;9.50;;;6.60;99.90;;;;;;5143887;27;20256;-83
2021/10/22 08:48:14;;;;;;;15.87;11.60;;;6.60;99.90;;;;;;5145055;27;20187;-83
2021/10/22 08:50:39;;;;;;;13.77;9.90;;;6.60;99.90;;;;;;5143296;27;20194;-83
2021/10/22 08:53:05;;;;;;;12.63;8.63;;;6.70;99.90;;;;;;5143662;27;20175;-84
2021/10/22 08:55:31;;;;;;;5.37;4.80;;;6.70;99.90;;;;;;5143244;27;20180;-83
2021/10/22 08:57:57;;;;;;;10.77;7.77;;;6.70;99.90;;;;;;5142557;27;20570;-82
2021/10/22 09:00:24;;;;;;;14.40;9.80;;;6.70;99.90;;;;;;5144495;28;20267;-82
2021/10/22 09:03:07;;;;;;;11.47;9.57;;;6.80;99.90;;;;;;5145006;28;20177;-82
2021/10/22 09:05:33;;;;;;;7.57;6.30;;;6.70;99.90;;;;;;5142951;28;20320;-82
2021/10/22 09:08:02;;;;;;;4.97;4.00;;;6.70;99.90;;;;;;5144613;28;20208;-83
2021/10/22 09:10:30;;;;;;;5.13;4.50;;;6.70;99.90;;;;;;5142497;27;20212;-82
2021/10/22 09:13:02;;;;;;;4.33;2.43;;;6.60;99.90;;;;;;5143687;28;20178;-84
2021/10/22 09:15:31;;;;;;;5.30;2.67;;;6.60;99.90;;;;;;5142309;28;20671;-83
2021/10/22 09:18:00;;;;;;;4.17;2.97;;;6.60;99.90;;;;;;5143427;28;20215;-82
2021/10/22 09:20:28;;;;;;;3.40;2.60;;;6.60;99.90;;;;;;5143192;28;20224;-83
2021/10/22 09:22:56;;;;;;;3.23;2.40;;;6.60;99.90;;;;;;5143577;27;20226;-83
2021/10/22 09:25:29;;;;;;;4.83;2.60;;;6.60;99.90;;;;;;5143412;28;20610;-83
2021/10/22 09:27:57;;;;;;;4.27;2.67;;;6.70;99.90;;;;;;5144186;28;20175;-82
2021/10/22 09:30:26;;;;;;;2.50;2.30;;;6.80;99.90;;;;;;5142708;28;20201;-82
2021/10/22 09:32:56;;;;;;;4.20;2.67;;;6.60;99.90;;;;;;5140376;27;20182;-82
2021/10/22 09:35:38;;;;;;;3.67;2.67;;;6.60;99.90;;;;;;5141877;27;20248;-82
2021/10/22 09:38:30;;;;;;;9.33;5.77;;;6.60;99.90;;;;;;5143442;28;20181;-82
2021/10/22 09:41:05;;;;;;;8.20;5.47;;;6.60;99.90;;;;;;5144437;27;20199;-83
2021/10/22 09:43:36;;;;;;;5.07;3.50;;;6.90;99.90;;;;;;5142979;27;20175;-83
2021/10/22 09:46:21;;;;;;;4.47;2.80;;;7.00;99.90;;;;;;5143853;28;20674;-83
2021/10/22 09:48:57;;;;;;;4.33;2.83;;;7.10;99.90;;;;;;5148479;27;20214;-84
2021/10/22 09:51:26;;;;;;;3.10;2.60;;;7.20;99.90;;;;;;5149100;27;20218;-83
2021/10/22 09:53:52;;;;;;;4.10;2.40;;;7.30;99.90;;;;;;5149475;27;20266;-83
2021/10/22 09:56:25;;;;;;;3.83;2.70;;;7.30;99.90;;;;;;5151833;27;20169;-82
2021/10/22 09:58:58;;;;;;;2.50;2.30;;;7.30;99.90;;;;;;5146865;27;20199;-82
2021/10/22 10:01:42;;;;;;;3.47;2.23;;;7.20;99.90;;;;;;5146570;27;20194;-82
2021/10/22 10:04:09;;;;;;;2.90;2.10;;;7.20;99.90;;;;;;5146112;27;20202;-83
2021/10/22 10:06:40;;;;;;;4.87;2.40;;;7.20;99.90;;;;;;5146253;27;20178;-83
2021/10/22 10:09:08;;;;;;;6.47;3.23;;;7.30;99.90;;;;;;5145589;27;20254;-83
2021/10/22 10:11:42;;;;;;;2.23;2.00;;;7.30;99.90;;;;;;5145386;27;20280;-82
2021/10/22 10:14:12;;;;;;;2.20;1.77;;;7.40;99.90;;;;;;5145343;27;20174;-83
2021/10/22 10:16:38;;;;;;;2.70;2.23;;;7.40;99.90;;;;;;5144530;27;20173;-82
2021/10/22 10:19:04;;;;;;;3.77;1.93;;;7.40;99.90;;;;;;5142098;27;20194;-82
2021/10/22 10:21:34;;;;;;;2.57;1.90;;;7.40;99.90;;;;;;5142002;27;20191;-82
2021/10/22 10:24:01;;;;;;;3.67;2.87;;;7.50;99.90;;;;;;5140483;27;20558;-82
2021/10/22 10:26:33;;;;;;;3.10;2.00;;;7.50;99.90;;;;;;5138258;27;20223;-82
2021/10/22 10:29:02;;;;;;;2.67;2.27;;;7.40;99.90;;;;;;5138553;27;20181;-82
2021/10/22 10:31:35;;;;;;;3.70;2.17;;;7.50;99.90;;;;;;5140801;27;20194;-82
2021/10/22 10:34:28;;;;;;;3.27;2.10;;;7.60;99.90;;;;;;5143872;27;20733;-82
2021/10/22 10:37:02;;;;;;;3.60;2.10;;;7.70;99.90;;;;;;5134388;27;20522;-82
2021/10/22 10:39:46;;;;;;;3.43;1.77;;;7.70;99.90;;;;;;5144907;27;20193;-82
2021/10/22 10:42:21;;;;;;;2.03;1.67;;;7.70;99.90;;;;;;5144414;27;20177;-83
2021/10/22 10:44:48;;;;;;;3.63;1.60;;;7.80;99.90;;;;;;5144826;27;20199;-82
2021/10/22 10:47:26;;;;;;;3.27;2.00;;;7.90;99.90;;;;;;5144822;27;20167;-82
2021/10/22 10:49:51;;;;;;;3.10;1.90;;;8.00;99.90;;;;;;5145489;27;20197;-82
2021/10/22 10:52:36;;;;;;;2.30;1.87;;;8.00;99.90;;;;;;5146227;27;20241;-82
2021/10/22 10:57:55;;;;;;;3.03;1.90;;;8.20;99.90;;;;;;5144790;27;20178;-82
2021/10/22 11:00:23;;;;;;;6.43;2.83;;;8.00;99.90;;;;;;5142382;27;20195;-81
2021/10/22 11:03:08;;;;;;;2.30;2.10;;;8.10;99.90;;;;;;5142868;27;20171;-82
2021/10/22 11:05:46;;;;;;;4.33;1.70;;;8.10;99.90;;;;;;5142822;27;20671;-81
2021/10/22 11:08:22;;;;;;;2.53;1.77;;;8.20;99.90;;;;;;5142121;27;20175;-81
2021/10/22 11:11:03;;;;;;;3.47;1.83;;;8.20;99.90;;;;;;5143915;27;20187;-81
2021/10/22 11:14:06;;;;;;;3.10;1.57;;;8.30;99.90;;;;;;5143757;27;20155;-83
2021/10/22 11:16:38;;;;;;;1.93;1.30;;;8.30;99.90;;;;;;5143945;27;20196;-81
2021/10/22 11:19:13;;;;;;;4.43;2.67;;;8.10;99.90;;;;;;5141971;27;20216;-81
2021/10/22 11:21:47;;;;;;;7.43;4.00;;;8.10;99.90;;;;;;5141589;27;20241;-81
2021/10/22 11:24:19;;;;;;;5.73;3.10;;;8.20;99.90;;;;;;5140212;27;20251;-82
2021/10/22 11:26:53;;;;;;;2.97;1.30;;;8.20;99.90;;;;;;5142179;27;20163;-81
2021/10/22 11:29:22;;;;;;;2.43;1.40;;;8.50;99.90;;;;;;5143342;27;20165;-81
2021/10/22 11:32:00;;;;;;;3.40;1.20;;;9.00;99.90;;;;;;5141196;27;20198;-81
2021/10/22 11:34:30;;;;;;;3.80;1.47;;;9.00;99.90;;;;;;5141274;27;20226;-82
2021/10/22 11:37:04;;;;;;;4.80;1.73;;;9.20;99.90;;;;;;5141612;27;20164;-82
2021/10/22 11:39:34;;;;;;;2.33;1.60;;;9.00;99.90;;;;;;5141953;27;20167;-81
2021/10/22 11:42:30;;;;;;;2.13;1.40;;;9.40;99.90;;;;;;5143699;27;20198;-81
2021/10/22 11:45:10;;;;;;;2.57;1.63;;;10.60;99.90;;;;;;5144167;27;20220;-81
2021/10/22 11:47:51;;;;;;;4.97;2.60;;;11.80;99.90;;;;;;5142635;27;20163;-82
2021/10/22 11:50:26;;;;;;;11.30;4.37;;;12.60;99.90;;;;;;5143009;27;20274;-81
2021/10/22 11:52:54;;;;;;;6.57;3.10;;;12.80;99.90;;;;;;5141330;27;20173;-83
2021/10/22 11:55:27;;;;;;;2.87;1.70;;;12.80;99.90;;;;;;5141338;27;20179;-83
2021/10/22 11:58:02;;;;;;;7.77;4.40;;;12.80;99.90;;;;;;5141801;27;20257;-82
2021/10/22 12:00:28;;;;;;;3.63;2.00;;;12.40;99.90;;;;;;5142111;27;20204;-82
2021/10/22 12:02:54;;;;;;;3.33;1.27;;;12.20;99.90;;;;;;5143063;27;20212;-81
2021/10/22 12:05:20;;;;;;;2.60;1.80;;;12.40;99.90;;;;;;5142191;27;20202;-81
2021/10/22 12:07:54;;;;;;;4.10;2.63;;;12.70;99.90;;;;;;5143247;27;20175;-83
2021/10/22 12:10:20;;;;;;;2.47;1.70;;;11.80;99.90;;;;;;5142057;27;20208;-80
2021/10/22 12:12:48;;;;;;;3.40;2.40;;;11.60;99.90;;;;;;5146963;27;20170;-80
2021/10/22 12:15:20;;;;;;;3.87;1.10;;;11.60;99.90;;;;;;5143710;27;20167;-81
2021/10/22 12:17:51;;;;;;;2.83;1.70;;;11.90;99.90;;;;;;5142294;27;20698;-82
2021/10/22 12:20:17;;;;;;;2.70;1.37;;;13.30;99.90;;;;;;5140664;27;20203;-82
2021/10/22 12:22:54;;;;;;;3.90;1.30;;;13.90;99.90;;;;;;5142282;27;20200;-81
2021/10/22 12:25:21;;;;;;;2.57;1.10;;;13.50;99.90;;;;;;5140014;27;20195;-81
2021/10/22 12:27:55;;;;;;;1.10;1.00;;;13.00;99.90;;;;;;5141554;27;20522;-80
2021/10/22 12:30:25;;;;;;;2.53;1.43;;;12.40;99.90;;;;;;5141854;27;20231;-81
2021/10/22 12:32:54;;;;;;;2.43;1.30;;;11.50;99.90;;;;;;5141142;27;20195;-81
2021/10/22 12:35:28;;;;;;;1.83;1.30;;;10.80;99.90;;;;;;5141895;27;20182;-81
2021/10/22 12:38:05;;;;;;;2.70;1.30;;;10.50;99.90;;;;;;5141822;27;20261;-80
2021/10/22 12:40:46;;;;;;;1.30;1.17;;;10.10;99.90;;;;;;5143061;27;20186;-81
2021/10/22 12:43:28;;;;;;;2.03;1.20;;;9.50;99.90;;;;;;5143474;27;20223;-80
2021/10/22 12:46:13;;;;;;;5.60;1.30;;;9.50;99.90;;;;;;5142425;27;20182;-80
2021/10/22 12:48:51;;;;;;;3.60;1.30;;;9.60;99.90;;;;;;5143816;27;20238;-80
2021/10/22 12:51:22;;;;;;;1.77;1.30;;;9.50;99.90;;;;;;5143212;27;20318;-79
2021/10/22 12:53:50;;;;;;;1.77;1.20;;;9.50;99.90;;;;;;5142591;27;20159;-81
2021/10/22 12:56:27;;;;;;;1.70;1.37;;;9.40;99.90;;;;;;5140352;27;20167;-80
2021/10/22 12:59:09;;;;;;;7.70;3.10;;;9.40;99.90;;;;;;5141465;27;20683;-80
2021/10/22 13:01:40;;;;;;;9.37;3.70;;;9.50;99.90;;;;;;5141166;27;20222;-80
2021/10/22 13:04:08;;;;;;;4.93;1.70;;;9.50;99.90;;;;;;5142216;28;20601;-81
2021/10/22 13:22:46;;;;;;;6.67;3.10;;;9.80;99.90;;;;;;5137987;27;20171;-81
2021/10/22 13:25:11;;;;;;;7.77;3.97;;;9.70;99.90;;;;;;5139343;27;20692;-80
2021/10/22 13:27:37;;;;;;;7.63;4.57;;;9.70;99.90;;;;;;5139336;27;20164;-80
2021/10/22 13:30:11;;;;;;;9.20;4.50;;;9.60;99.90;;;;;;5144086;27;20664;-80